createdAt,value
2023-05-12T00:01:47.777Z,3.50
2023-05-12T00:05:17.915Z,4.20
2023-05-12T00:08:46.030Z,3.70
2023-05-12T00:12:16.762Z,3.90
2023-05-12T00:15:43.876Z,3.80
2023-05-12T00:19:12.396Z,3.90
2023-05-12T00:22:39.592Z,3.80
2023-05-12T00:26:06.600Z,3.40
2023-05-12T00:29:33.929Z,3.80
2023-05-12T00:33:01.883Z,4.10
2023-05-12T00:36:30.788Z,4.00
2023-05-12T00:39:58.003Z,3.90
2023-05-12T00:43:25.352Z,4.10
2023-05-12T00:46:52.732Z,4.50
2023-05-12T00:50:19.754Z,4.50
2023-05-12T00:53:51.101Z,4.10
2023-05-12T00:57:20.539Z,4.40
2023-05-12T01:00:48.073Z,4.90
2023-05-12T01:04:15.745Z,4.90
2023-05-12T01:07:43.922Z,5.00
2023-05-12T01:11:11.297Z,4.30
2023-05-12T01:14:39.070Z,4.90
2023-05-12T01:18:08.876Z,4.80
2023-05-12T01:21:37.260Z,4.00
2023-05-12T01:25:07.854Z,4.30
2023-05-12T01:28:36.220Z,4.30
2023-05-12T01:32:04.445Z,4.20
2023-05-12T01:35:32.574Z,4.10
2023-05-12T01:39:01.861Z,4.10
2023-05-12T01:42:29.573Z,4.40
2023-05-12T01:45:59.683Z,4.30
2023-05-12T01:49:27.122Z,4.40
2023-05-12T01:52:55.307Z,4.00
2023-05-12T01:56:23.269Z,4.60
2023-05-12T01:59:50.182Z,4.10
2023-05-12T02:03:18.889Z,4.30
2023-05-12T02:06:46.722Z,4.40
2023-05-12T02:10:14.311Z,4.30
2023-05-12T02:13:42.035Z,4.40
2023-05-12T02:17:09.151Z,4.30
2023-05-12T02:20:36.474Z,4.20
2023-05-12T02:24:04.076Z,4.50
2023-05-12T02:27:32.672Z,4.40
2023-05-12T02:30:59.876Z,4.80
2023-05-12T02:34:28.260Z,4.50
2023-05-12T02:37:57.166Z,4.60
2023-05-12T02:41:24.221Z,4.90
2023-05-12T02:44:51.559Z,4.60
2023-05-12T02:48:18.692Z,4.70
2023-05-12T02:51:48.817Z,4.60
2023-05-12T02:55:15.393Z,4.70
2023-05-12T02:58:42.261Z,4.40
2023-05-12T03:02:09.351Z,4.70
2023-05-12T03:05:36.390Z,4.30
2023-05-12T03:09:04.470Z,4.80
2023-05-12T03:12:31.818Z,4.60
2023-05-12T03:16:02.228Z,4.30
2023-05-12T03:19:30.211Z,4.40
2023-05-12T03:22:57.496Z,4.40
2023-05-12T03:26:25.140Z,4.90
2023-05-12T03:29:52.311Z,4.90
2023-05-12T03:33:19.232Z,4.60
2023-05-12T03:36:47.705Z,4.70
2023-05-12T03:40:19.263Z,4.50
2023-05-12T03:43:47.530Z,4.50
2023-05-12T03:47:15.273Z,4.30
2023-05-12T03:50:43.174Z,4.50
2023-05-12T03:54:11.440Z,4.80
2023-05-12T03:57:38.689Z,4.70
2023-05-12T04:01:05.969Z,4.80
2023-05-12T04:04:32.888Z,4.60
2023-05-12T04:07:59.485Z,5.00
2023-05-12T04:11:26.474Z,4.70
2023-05-12T04:14:53.532Z,4.70
2023-05-12T04:18:20.490Z,4.40
2023-05-12T04:21:47.723Z,5.20
2023-05-12T04:25:14.518Z,4.60
2023-05-12T04:28:41.478Z,4.90
2023-05-12T04:32:10.440Z,4.20
2023-05-12T04:35:37.830Z,4.30
2023-05-12T04:39:05.791Z,4.70
2023-05-12T04:42:33.195Z,4.60
2023-05-12T04:46:03.516Z,5.00
2023-05-12T04:49:31.393Z,4.90
2023-05-12T04:52:58.692Z,5.00
2023-05-12T04:56:25.794Z,4.60
2023-05-12T04:59:53.818Z,4.50
2023-05-12T05:03:21.358Z,4.70
2023-05-12T05:06:50.038Z,4.90
2023-05-12T05:10:18.821Z,4.70
2023-05-12T05:13:45.945Z,5.00
2023-05-12T05:17:13.667Z,4.50
2023-05-12T05:20:45.038Z,5.40
2023-05-12T05:24:15.183Z,4.50
2023-05-12T05:27:42.386Z,4.90
2023-05-12T05:31:09.389Z,5.60
2023-05-12T05:34:36.608Z,6.10
2023-05-12T05:38:04.041Z,5.00
2023-05-12T05:41:32.493Z,5.40
2023-05-12T05:44:59.362Z,5.20
2023-05-12T05:48:26.174Z,5.20
2023-05-12T05:51:54.017Z,5.80
2023-05-12T05:55:21.669Z,5.00
2023-05-12T05:58:50.431Z,4.70
2023-05-12T06:02:17.736Z,4.40
2023-05-12T06:05:44.960Z,4.90
2023-05-12T06:09:13.141Z,6.20
2023-05-12T06:12:41.130Z,5.40
2023-05-12T06:16:08.713Z,5.30
2023-05-12T06:19:35.408Z,4.80
2023-05-12T06:23:03.119Z,5.10
2023-05-12T06:26:31.645Z,7.40
2023-05-12T06:29:58.346Z,4.60
2023-05-12T06:33:25.537Z,4.30
2023-05-12T06:36:54.907Z,4.50
2023-05-12T06:40:25.448Z,4.70
2023-05-12T06:43:53.669Z,5.20
2023-05-12T06:47:27.726Z,4.60
2023-05-12T06:50:59.416Z,4.50
2023-05-12T06:54:28.879Z,4.80
2023-05-12T06:57:58.709Z,4.60
2023-05-12T07:01:26.036Z,4.40
2023-05-12T07:04:53.719Z,4.40
2023-05-12T07:08:20.883Z,3.70
2023-05-12T07:11:49.067Z,3.70
2023-05-12T07:15:16.793Z,3.70
2023-05-12T07:18:44.539Z,3.90
2023-05-12T07:22:11.700Z,3.80
2023-05-12T07:25:39.600Z,4.10
2023-05-12T07:29:07.607Z,4.20
2023-05-12T07:32:34.685Z,4.20
2023-05-12T07:36:01.922Z,4.10
2023-05-12T07:39:29.826Z,3.50
2023-05-12T07:42:57.378Z,3.70
2023-05-12T07:46:24.188Z,3.50
2023-05-12T07:49:51.709Z,3.40
2023-05-12T07:53:19.414Z,3.00
2023-05-12T07:56:46.755Z,3.90
2023-05-12T08:00:16.774Z,3.00
2023-05-12T08:03:46.963Z,3.80
2023-05-12T08:07:19.389Z,3.70
2023-05-12T08:10:46.973Z,3.60
2023-05-12T08:14:14.961Z,2.80
2023-05-12T08:17:43.452Z,3.10
2023-05-12T08:21:11.561Z,2.90
2023-05-12T08:24:38.625Z,2.90
2023-05-12T08:28:05.406Z,3.00
2023-05-12T08:31:32.310Z,2.70
2023-05-12T08:34:59.553Z,2.90
2023-05-12T08:38:26.895Z,3.40
2023-05-12T08:42:02.632Z,2.90
2023-05-12T08:45:30.093Z,3.20
2023-05-12T08:48:59.100Z,2.60
2023-05-12T08:52:26.225Z,2.40
2023-05-12T08:57:08.854Z,2.20
2023-05-12T08:59:45.242Z,2.50
2023-05-12T09:03:14.728Z,3.30
2023-05-12T09:06:44.010Z,3.30
2023-05-12T09:10:29.877Z,2.30
2023-05-12T09:14:05.001Z,2.90
2023-05-12T09:17:31.966Z,4.10
2023-05-12T09:20:58.644Z,2.90
2023-05-12T09:24:37.796Z,2.50
2023-05-12T09:28:05.347Z,3.00
2023-05-12T09:31:32.051Z,3.00
2023-05-12T09:34:58.987Z,3.50
2023-05-12T09:38:26.515Z,2.30
2023-05-12T09:41:55.103Z,2.80
2023-05-12T09:45:23.061Z,2.70
2023-05-12T09:48:53.581Z,2.70
2023-05-12T09:52:24.021Z,3.30
2023-05-12T09:55:52.525Z,2.30
2023-05-12T09:59:21.512Z,2.40
2023-05-12T10:02:52.619Z,2.50
2023-05-12T10:06:25.585Z,2.40
2023-05-12T10:09:53.236Z,2.90
2023-05-12T10:13:21.534Z,2.00
2023-05-12T10:16:49.283Z,2.40
2023-05-12T10:20:17.629Z,2.90
2023-05-12T10:23:46.654Z,2.40
2023-05-12T10:27:17.556Z,1.90
2023-05-12T10:30:46.791Z,2.20
2023-05-12T10:34:20.033Z,2.40
2023-05-12T10:37:48.444Z,2.30
2023-05-12T10:41:17.130Z,2.10
2023-05-12T10:44:53.760Z,3.50
2023-05-12T10:48:20.785Z,4.10
2023-05-12T10:51:52.057Z,2.50
2023-05-12T10:55:19.987Z,2.20
2023-05-12T10:59:10.410Z,2.70
2023-05-12T11:02:40.111Z,2.40
2023-05-12T11:06:10.482Z,2.20
2023-05-12T11:09:50.380Z,2.00
2023-05-12T11:13:23.400Z,3.60
2023-05-12T11:16:50.611Z,2.50
2023-05-12T11:20:30.210Z,2.20
2023-05-12T11:23:59.043Z,2.60
2023-05-12T11:27:26.624Z,1.90
2023-05-12T11:30:55.635Z,2.10
2023-05-12T11:34:27.370Z,3.10
2023-05-12T11:37:54.280Z,2.20
2023-05-12T11:41:26.707Z,2.00
2023-05-12T11:44:55.693Z,2.30
2023-05-12T11:48:23.071Z,2.50
2023-05-12T11:51:52.522Z,2.40
2023-05-12T11:55:24.594Z,2.20
2023-05-12T11:58:58.030Z,2.30
2023-05-12T12:02:25.199Z,2.50
2023-05-12T12:06:02.976Z,2.20
2023-05-12T12:09:36.791Z,2.30
2023-05-12T12:13:06.152Z,2.80
2023-05-12T12:16:34.977Z,2.00
2023-05-12T12:20:02.250Z,2.20
2023-05-12T12:23:33.335Z,2.60
2023-05-12T12:27:09.045Z,2.50
2023-05-12T12:30:35.898Z,2.20
2023-05-12T12:34:02.879Z,2.50
2023-05-12T12:37:30.503Z,2.90
2023-05-12T12:40:57.447Z,2.90
2023-05-12T12:44:24.420Z,2.50
2023-05-12T12:47:55.020Z,3.10
2023-05-12T12:51:23.591Z,2.60
2023-05-12T12:54:53.461Z,2.20
2023-05-12T12:58:20.707Z,1.90
2023-05-12T13:01:50.799Z,1.90
2023-05-12T13:05:18.101Z,2.60
2023-05-12T13:08:45.929Z,2.20
2023-05-12T13:12:13.705Z,2.10
2023-05-12T13:15:41.989Z,2.40
2023-05-12T13:19:09.250Z,2.00
2023-05-12T13:22:36.185Z,2.10
2023-05-12T13:26:03.192Z,1.90
2023-05-12T13:29:30.537Z,2.60
2023-05-12T13:32:57.715Z,1.80
2023-05-12T13:36:24.273Z,2.10
2023-05-12T13:39:51.829Z,2.10
2023-05-12T13:43:19.470Z,2.30
2023-05-12T13:46:46.409Z,2.10
2023-05-12T13:50:13.803Z,2.20
2023-05-12T13:53:41.014Z,1.70
2023-05-12T13:57:14.470Z,1.90
2023-05-12T14:00:42.030Z,2.20
2023-05-12T14:04:09.376Z,1.90
2023-05-12T14:07:35.989Z,2.20
2023-05-12T14:11:02.801Z,2.30
2023-05-12T14:14:29.476Z,1.90
2023-05-12T14:17:56.169Z,2.30
2023-05-12T14:21:23.805Z,2.00
2023-05-12T14:24:51.172Z,2.00
2023-05-12T14:28:18.069Z,2.00
2023-05-12T14:31:45.249Z,2.50
2023-05-12T14:35:13.375Z,2.00
2023-05-12T14:38:40.216Z,1.90
2023-05-12T14:42:07.424Z,2.00
2023-05-12T14:45:34.518Z,2.20
2023-05-12T14:49:01.600Z,1.80
2023-05-12T14:52:28.074Z,2.00
2023-05-12T14:55:55.104Z,1.70
2023-05-12T14:59:22.433Z,2.00
2023-05-12T15:02:49.689Z,1.60
2023-05-12T15:06:17.023Z,2.30
2023-05-12T15:09:44.826Z,1.70
2023-05-12T15:13:12.916Z,2.10
2023-05-12T15:16:40.325Z,2.00
2023-05-12T15:20:10.134Z,1.90
2023-05-12T15:23:37.437Z,1.80
2023-05-12T15:27:04.295Z,2.10
2023-05-12T15:30:36.146Z,1.90
2023-05-12T15:34:06.449Z,1.70
2023-05-12T15:37:33.317Z,2.00
2023-05-12T15:41:02.510Z,2.40
2023-05-12T15:44:30.660Z,2.30
2023-05-12T15:48:01.439Z,2.40
2023-05-12T15:51:30.101Z,2.50
2023-05-12T15:54:57.259Z,2.20
2023-05-12T15:58:28.018Z,2.20
2023-05-12T16:01:55.782Z,2.90
2023-05-12T16:05:24.270Z,2.80
2023-05-12T16:08:52.866Z,1.80
2023-05-12T16:12:20.172Z,1.90
2023-05-12T16:15:47.322Z,2.30
2023-05-12T16:19:14.269Z,1.80
2023-05-12T16:22:42.768Z,2.20
2023-05-12T16:26:09.974Z,1.90
2023-05-12T16:29:37.244Z,2.20
2023-05-12T16:33:04.065Z,2.20
2023-05-12T16:36:32.419Z,2.10
2023-05-12T16:39:59.592Z,2.10
2023-05-12T16:43:26.546Z,2.00
2023-05-12T16:46:53.738Z,2.70
2023-05-12T16:50:21.161Z,1.90
2023-05-12T16:53:48.220Z,2.10
2023-05-12T16:57:15.482Z,2.20
2023-05-12T17:00:43.663Z,1.80
2023-05-12T17:04:12.772Z,1.80
2023-05-12T17:07:41.258Z,2.00
2023-05-12T17:11:10.052Z,2.30
2023-05-12T17:14:37.452Z,2.30
2023-05-12T17:18:06.493Z,2.00
2023-05-12T17:21:34.164Z,1.80
2023-05-12T17:25:03.333Z,1.90
2023-05-12T17:28:32.164Z,2.00
2023-05-12T17:32:02.455Z,2.00
2023-05-12T17:35:30.420Z,2.10
2023-05-12T17:38:58.517Z,2.40
2023-05-12T17:42:29.029Z,2.20
2023-05-12T17:45:55.723Z,1.90
2023-05-12T17:49:22.687Z,2.30
2023-05-12T17:52:50.398Z,2.30
2023-05-12T17:56:17.900Z,2.10
2023-05-12T17:59:45.339Z,2.10
2023-05-12T18:03:16.011Z,2.70
2023-05-12T18:06:42.695Z,2.20
2023-05-12T18:10:12.614Z,2.30
2023-05-12T18:13:39.774Z,2.20
2023-05-12T18:17:06.944Z,2.30
2023-05-12T18:20:34.250Z,2.70
2023-05-12T18:24:01.651Z,1.90
2023-05-12T18:27:29.200Z,2.30
2023-05-12T18:30:58.061Z,2.20
2023-05-12T18:34:28.617Z,2.00
2023-05-12T18:37:56.168Z,2.50
2023-05-12T18:41:22.981Z,2.30
2023-05-12T18:44:50.361Z,2.70
2023-05-12T18:48:17.522Z,2.60
2023-05-12T18:51:46.015Z,2.60
2023-05-12T18:55:21.961Z,2.70
2023-05-12T18:58:51.449Z,2.60
2023-05-12T19:02:19.486Z,2.60
2023-05-12T19:05:49.675Z,2.90
2023-05-12T19:09:24.657Z,3.10
2023-05-12T19:12:59.366Z,3.30
2023-05-12T19:16:31.946Z,3.00
2023-05-12T19:20:03.253Z,2.80
2023-05-12T19:23:33.470Z,3.30
2023-05-12T19:27:04.823Z,3.20
2023-05-12T19:30:36.078Z,3.60
2023-05-12T19:34:10.686Z,4.10
2023-05-12T19:37:46.665Z,3.70
2023-05-12T19:41:19.319Z,3.30
2023-05-12T19:45:01.297Z,3.00
2023-05-12T19:48:36.399Z,3.00
2023-05-12T19:52:14.003Z,3.20
2023-05-12T19:55:45.497Z,3.00
2023-05-12T19:59:15.339Z,3.60
2023-05-12T20:02:46.379Z,3.00
2023-05-12T20:06:22.487Z,3.60
2023-05-12T20:09:56.836Z,3.40
2023-05-12T20:13:29.122Z,3.30
2023-05-12T20:17:11.332Z,3.70
2023-05-12T20:20:42.107Z,4.00
2023-05-12T20:24:16.394Z,3.80
2023-05-12T20:27:57.171Z,3.50
2023-05-12T20:31:26.630Z,4.10
2023-05-12T20:34:55.988Z,3.90
2023-05-12T20:38:24.501Z,4.10
2023-05-12T20:42:04.466Z,3.90
2023-05-12T20:45:34.203Z,4.10
2023-05-12T20:49:02.062Z,4.60
2023-05-12T20:52:33.363Z,4.00
2023-05-12T20:55:59.989Z,4.00
2023-05-12T20:59:26.852Z,4.60
2023-05-12T21:02:54.775Z,4.70
2023-05-12T21:06:22.266Z,4.80
2023-05-12T21:09:49.802Z,4.60
2023-05-12T21:13:20.066Z,4.60
2023-05-12T21:16:49.280Z,4.80
2023-05-12T21:20:16.731Z,6.10
2023-05-12T21:23:45.476Z,5.30
2023-05-12T21:27:13.159Z,4.80
2023-05-12T21:30:43.897Z,5.10
2023-05-12T21:34:13.049Z,4.90
2023-05-12T21:37:54.173Z,4.20
2023-05-12T21:41:21.755Z,4.70
2023-05-12T21:44:50.856Z,5.10
2023-05-12T21:48:18.168Z,4.90
2023-05-12T21:51:45.096Z,5.60
2023-05-12T21:55:15.308Z,4.90
2023-05-12T21:58:43.136Z,4.90
2023-05-12T22:02:11.700Z,5.30
2023-05-12T22:05:39.259Z,5.50
2023-05-12T22:09:06.131Z,5.80
2023-05-12T22:12:33.750Z,6.20
2023-05-12T22:16:01.562Z,5.40
2023-05-12T22:19:29.232Z,5.90
2023-05-12T22:22:56.361Z,5.70
2023-05-12T22:26:23.604Z,5.80
2023-05-12T22:29:50.611Z,5.90
2023-05-12T22:33:18.637Z,5.80
2023-05-12T22:36:45.385Z,6.20
2023-05-12T22:40:14.177Z,5.70
2023-05-12T22:43:41.706Z,6.10
2023-05-12T22:47:09.822Z,6.30
2023-05-12T22:50:36.631Z,6.20
2023-05-12T22:54:07.737Z,5.90
2023-05-12T22:57:34.935Z,5.30
2023-05-12T23:01:06.220Z,5.50
2023-05-12T23:04:40.530Z,5.80
2023-05-12T23:08:08.346Z,5.80
2023-05-12T23:11:35.441Z,5.70
2023-05-12T23:15:03.272Z,5.90
2023-05-12T23:18:34.424Z,6.60
2023-05-12T23:22:01.747Z,6.00
2023-05-12T23:25:28.694Z,6.40
2023-05-12T23:28:56.049Z,6.30
2023-05-12T23:32:24.077Z,6.20
2023-05-12T23:35:52.387Z,6.40
2023-05-12T23:39:19.509Z,6.50
2023-05-12T23:42:47.561Z,6.90
2023-05-12T23:46:14.800Z,5.50
2023-05-12T23:49:43.883Z,5.50
2023-05-12T23:53:11.791Z,6.70
2023-05-12T23:56:41.444Z,6.60
